sensor_id;sensor_type;location;lat;lon;timestamp;pressure;altitude;pressure_sealevel;temperature;humidity
30682;BME280;17439;48.092;11.842;2022-09-09T00:02:02;95213.25;;;17.72;59.25
30682;BME280;17439;48.092;11.842;2022-09-09T00:04:33;95215.91;;;17.69;59.26
30682;BME280;17439;48.092;11.842;2022-09-09T00:07:06;95217.44;;;17.66;59.72
30682;BME280;17439;48.092;11.842;2022-09-09T00:12:44;95216.50;;;17.58;59.49
30682;BME280;17439;48.092;11.842;2022-09-09T00:15:19;95214.13;;;17.57;59.71
30682;BME280;17439;48.092;11.842;2022-09-09T00:17:57;95219.19;;;17.55;59.58
30682;BME280;17439;48.092;11.842;2022-09-09T00:20:32;95225.75;;;17.50;60.06
30682;BME280;17439;48.092;11.842;2022-09-09T00:23:23;95226.06;;;17.45;60.35
30682;BME280;17439;48.092;11.842;2022-09-09T00:26:18;95228.69;;;17.41;59.99
30682;BME280;17439;48.092;11.842;2022-09-09T00:29:02;95219.28;;;17.39;60.47
30682;BME280;17439;48.092;11.842;2022-09-09T00:31:31;95220.06;;;17.39;60.23
30682;BME280;17439;48.092;11.842;2022-09-09T00:34:05;95223.50;;;17.36;60.66
30682;BME280;17439;48.092;11.842;2022-09-09T00:36:36;95219.63;;;17.37;60.44
30682;BME280;17439;48.092;11.842;2022-09-09T00:39:04;95223.94;;;17.38;60.68
30682;BME280;17439;48.092;11.842;2022-09-09T00:41:36;95227.84;;;17.37;60.52
30682;BME280;17439;48.092;11.842;2022-09-09T00:44:42;95229.00;;;17.36;60.68
30682;BME280;17439;48.092;11.842;2022-09-09T00:47:40;95233.31;;;17.37;60.70
30682;BME280;17439;48.092;11.842;2022-09-09T00:50:32;95225.53;;;17.39;60.98
30682;BME280;17439;48.092;11.842;2022-09-09T00:53:15;95224.81;;;17.43;60.73
30682;BME280;17439;48.092;11.842;2022-09-09T00:56:14;95221.72;;;17.44;60.84
30682;BME280;17439;48.092;11.842;2022-09-09T00:58:45;95228.84;;;17.49;60.85
30682;BME280;17439;48.092;11.842;2022-09-09T01:01:14;95230.06;;;17.51;60.96
30682;BME280;17439;48.092;11.842;2022-09-09T01:03:53;95232.91;;;17.55;60.99
30682;BME280;17439;48.092;11.842;2022-09-09T01:06:30;95230.22;;;17.58;60.78
30682;BME280;17439;48.092;11.842;2022-09-09T01:09:21;95229.50;;;17.62;60.92
30682;BME280;17439;48.092;11.842;2022-09-09T01:17:14;95222.34;;;17.76;60.95
30682;BME280;17439;48.092;11.842;2022-09-09T01:19:58;95214.97;;;17.81;61.04
30682;BME280;17439;48.092;11.842;2022-09-09T01:28:17;95213.19;;;17.88;60.98
30682;BME280;17439;48.092;11.842;2022-09-09T01:30:47;95220.34;;;17.93;60.58
30682;BME280;17439;48.092;11.842;2022-09-09T01:33:18;95216.41;;;17.94;60.68
30682;BME280;17439;48.092;11.842;2022-09-09T01:35:52;95214.13;;;17.96;60.79
30682;BME280;17439;48.092;11.842;2022-09-09T01:38:24;95213.41;;;17.99;60.86
30682;BME280;17439;48.092;11.842;2022-09-09T01:40:53;95213.00;;;18.01;60.91
30682;BME280;17439;48.092;11.842;2022-09-09T01:43:25;95215.84;;;18.04;60.67
30682;BME280;17439;48.092;11.842;2022-09-09T01:45:55;95219.00;;;18.06;60.70
30682;BME280;17439;48.092;11.842;2022-09-09T01:48:24;95216.69;;;18.08;60.57
30682;BME280;17439;48.092;11.842;2022-09-09T01:51:00;95222.16;;;18.08;60.53
30682;BME280;17439;48.092;11.842;2022-09-09T01:53:27;95221.44;;;18.11;60.69
30682;BME280;17439;48.092;11.842;2022-09-09T01:56:08;95225.34;;;18.10;60.61
30682;BME280;17439;48.092;11.842;2022-09-09T01:58:47;95223.03;;;18.12;60.72
30682;BME280;17439;48.092;11.842;2022-09-09T02:01:42;95221.06;;;18.13;60.36
30682;BME280;17439;48.092;11.842;2022-09-09T02:04:40;95223.44;;;18.15;60.32
30682;BME280;17439;48.092;11.842;2022-09-09T02:10:10;95218.03;;;18.18;60.45
30682;BME280;17439;48.092;11.842;2022-09-09T02:12:45;95221.56;;;18.19;60.36
30682;BME280;17439;48.092;11.842;2022-09-09T02:15:20;95213.75;;;18.21;60.59
30682;BME280;17439;48.092;11.842;2022-09-09T02:17:50;95216.13;;;18.22;60.39
30682;BME280;17439;48.092;11.842;2022-09-09T02:20:19;95216.88;;;18.19;60.47
30682;BME280;17439;48.092;11.842;2022-09-09T02:22:55;95217.25;;;18.18;60.63
30682;BME280;17439;48.092;11.842;2022-09-09T02:25:26;95216.09;;;18.19;60.61
30682;BME280;17439;48.092;11.842;2022-09-09T02:27:58;95207.44;;;18.17;60.58
30682;BME280;17439;48.092;11.842;2022-09-09T02:30:27;95204.69;;;18.17;60.59
30682;BME280;17439;48.092;11.842;2022-09-09T02:32:58;95205.84;;;18.16;60.57
30682;BME280;17439;48.092;11.842;2022-09-09T02:35:42;95215.22;;;18.15;60.58
30682;BME280;17439;48.092;11.842;2022-09-09T02:38:13;95222.66;;;18.14;60.76
30682;BME280;17439;48.092;11.842;2022-09-09T02:40:52;95215.94;;;18.11;60.65
30682;BME280;17439;48.092;11.842;2022-09-09T02:43:19;95207.72;;;18.11;60.63
30682;BME280;17439;48.092;11.842;2022-09-09T02:48:34;95210.03;;;18.09;60.83
30682;BME280;17439;48.092;11.842;2022-09-09T02:51:08;95217.50;;;18.09;60.95
30682;BME280;17439;48.092;11.842;2022-09-09T02:53:59;95220.59;;;18.07;60.85
30682;BME280;17439;48.092;11.842;2022-09-09T02:56:32;95211.19;;;18.08;60.76
30682;BME280;17439;48.092;11.842;2022-09-09T02:59:04;95209.25;;;18.09;60.84
30682;BME280;17439;48.092;11.842;2022-09-09T03:01:33;95196.34;;;18.09;60.59
30682;BME280;17439;48.092;11.842;2022-09-09T03:04:00;95197.84;;;18.07;60.74
30682;BME280;17439;48.092;11.842;2022-09-09T03:06:26;95203.31;;;18.07;60.95
30682;BME280;17439;48.092;11.842;2022-09-09T03:09:01;95201.75;;;18.06;60.73
30682;BME280;17439;48.092;11.842;2022-09-09T03:11:29;95202.13;;;18.04;60.91
30682;BME280;17439;48.092;11.842;2022-09-09T03:13:57;95204.06;;;18.04;60.87
30682;BME280;17439;48.092;11.842;2022-09-09T03:16:25;95203.06;;;17.92;60.75
30682;BME280;17439;48.092;11.842;2022-09-09T03:18:53;95208.75;;;18.03;60.88
30682;BME280;17439;48.092;11.842;2022-09-09T03:21:20;95194.69;;;18.05;60.95
30682;BME280;17439;48.092;11.842;2022-09-09T03:23:47;95191.88;;;18.01;60.90
30682;BME280;17439;48.092;11.842;2022-09-09T03:26:14;95190.69;;;18.02;60.80
30682;BME280;17439;48.092;11.842;2022-09-09T03:28:44;95186.41;;;18.01;60.80
30682;BME280;17439;48.092;11.842;2022-09-09T03:31:13;95192.25;;;18.00;60.90
30682;BME280;17439;48.092;11.842;2022-09-09T03:33:41;95189.88;;;17.98;60.73
30682;BME280;17439;48.092;11.842;2022-09-09T03:36:11;95182.78;;;17.97;60.72
30682;BME280;17439;48.092;11.842;2022-09-09T03:38:38;95178.03;;;17.94;60.77
30682;BME280;17439;48.092;11.842;2022-09-09T03:41:05;95173.72;;;17.93;60.83
30682;BME280;17439;48.092;11.842;2022-09-09T03:43:33;95172.13;;;17.92;60.56
30682;BME280;17439;48.092;11.842;2022-09-09T03:46:00;95172.50;;;17.90;60.61
30682;BME280;17439;48.092;11.842;2022-09-09T03:48:29;95176.38;;;17.89;60.68
30682;BME280;17439;48.092;11.842;2022-09-09T03:50:57;95173.19;;;17.87;60.65
30682;BME280;17439;48.092;11.842;2022-09-09T03:53:24;95174.69;;;17.85;60.58
30682;BME280;17439;48.092;11.842;2022-09-09T03:55:53;95184.09;;;17.84;60.46
30682;BME280;17439;48.092;11.842;2022-09-09T03:58:23;95179.34;;;17.81;60.62
30682;BME280;17439;48.092;11.842;2022-09-09T04:00:59;95180.06;;;17.77;60.95
30682;BME280;17439;48.092;11.842;2022-09-09T04:03:27;95172.94;;;17.73;60.86
30682;BME280;17439;48.092;11.842;2022-09-09T04:05:55;95178.22;;;17.62;60.49
30682;BME280;17439;48.092;11.842;2022-09-09T04:08:23;95173.22;;;17.68;60.83
30682;BME280;17439;48.092;11.842;2022-09-09T04:10:51;95178.66;;;17.64;60.86
30682;BME280;17439;48.092;11.842;2022-09-09T04:13:18;95184.50;;;17.63;61.34
30682;BME280;17439;48.092;11.842;2022-09-09T04:15:55;95181.31;;;17.61;61.84
30682;BME280;17439;48.092;11.842;2022-09-09T04:18:22;95172.66;;;17.58;61.70
30682;BME280;17439;48.092;11.842;2022-09-09T04:20:50;95174.25;;;17.59;61.73
30682;BME280;17439;48.092;11.842;2022-09-09T04:23:20;95176.19;;;17.59;61.69
30682;BME280;17439;48.092;11.842;2022-09-09T04:25:49;95180.09;;;17.58;61.96
30682;BME280;17439;48.092;11.842;2022-09-09T04:28:18;95183.25;;;17.60;62.22
30682;BME280;17439;48.092;11.842;2022-09-09T04:30:45;95183.84;;;17.50;62.54
30682;BME280;17439;48.092;11.842;2022-09-09T04:33:13;95164.09;;;17.60;62.18
30682;BME280;17439;48.092;11.842;2022-09-09T04:35:44;95153.91;;;17.61;62.12
30682;BME280;17439;48.092;11.842;2022-09-09T04:38:12;95149.66;;;17.63;62.14
30682;BME280;17439;48.092;11.842;2022-09-09T04:40:42;95153.53;;;17.62;62.31
30682;BME280;17439;48.092;11.842;2022-09-09T04:43:09;95159.47;;;17.64;62.09
30682;BME280;17439;48.092;11.842;2022-09-09T04:45:42;95156.72;;;17.64;62.26
30682;BME280;17439;48.092;11.842;2022-09-09T04:48:09;95157.88;;;17.63;62.21
30682;BME280;17439;48.092;11.842;2022-09-09T04:50:36;95164.94;;;17.64;62.02
30682;BME280;17439;48.092;11.842;2022-09-09T04:53:04;95166.09;;;17.63;62.18
30682;BME280;17439;48.092;11.842;2022-09-09T04:55:32;95161.03;;;17.65;62.10
30682;BME280;17439;48.092;11.842;2022-09-09T04:58:03;95160.25;;;17.65;62.36
30682;BME280;17439;48.092;11.842;2022-09-09T05:00:31;95154.03;;;17.68;62.23
30682;BME280;17439;48.092;11.842;2022-09-09T05:03:02;95150.94;;;17.69;62.19
30682;BME280;17439;48.092;11.842;2022-09-09T05:05:29;95159.59;;;17.71;62.26
30682;BME280;17439;48.092;11.842;2022-09-09T05:08:01;95162.75;;;17.73;62.34
30682;BME280;17439;48.092;11.842;2022-09-09T05:10:28;95161.19;;;17.72;62.55
30682;BME280;17439;48.092;11.842;2022-09-09T05:12:55;95160.47;;;17.75;62.43
30682;BME280;17439;48.092;11.842;2022-09-09T05:15:25;95163.63;;;17.77;62.48
30682;BME280;17439;48.092;11.842;2022-09-09T05:17:51;95170.34;;;17.80;62.33
30682;BME280;17439;48.092;11.842;2022-09-09T05:20:19;95166.41;;;17.81;62.51
30682;BME280;17439;48.092;11.842;2022-09-09T05:22:45;95160.19;;;17.84;62.40
30682;BME280;17439;48.092;11.842;2022-09-09T05:25:12;95161.88;;;17.89;62.34
30682;BME280;17439;48.092;11.842;2022-09-09T05:27:38;95163.13;;;17.91;62.37
30682;BME280;17439;48.092;11.842;2022-09-09T05:30:05;95173.34;;;17.94;62.37
30682;BME280;17439;48.092;11.842;2022-09-09T05:32:33;95172.63;;;17.98;62.56
30682;BME280;17439;48.092;11.842;2022-09-09T05:35:00;95172.31;;;18.03;62.62
30682;BME280;17439;48.092;11.842;2022-09-09T05:37:27;95175.53;;;18.08;62.56
30682;BME280;17439;48.092;11.842;2022-09-09T05:39:54;95172.88;;;18.12;62.82
30682;BME280;17439;48.092;11.842;2022-09-09T05:42:21;95178.47;;;18.19;62.98
30682;BME280;17439;48.092;11.842;2022-09-09T05:44:47;95186.81;;;18.26;62.93
30682;BME280;17439;48.092;11.842;2022-09-09T05:47:14;95192.78;;;18.32;62.65
30682;BME280;17439;48.092;11.842;2022-09-09T05:49:41;95196.81;;;18.38;62.75
30682;BME280;17439;48.092;11.842;2022-09-09T05:52:09;95189.06;;;18.44;62.48
30682;BME280;17439;48.092;11.842;2022-09-09T05:54:35;95181.31;;;18.49;62.56
30682;BME280;17439;48.092;11.842;2022-09-09T05:57:02;95182.16;;;18.54;62.11
30682;BME280;17439;48.092;11.842;2022-09-09T05:59:28;95187.31;;;18.59;62.26
30682;BME280;17439;48.092;11.842;2022-09-09T06:01:56;95176.41;;;18.62;62.03
30682;BME280;17439;48.092;11.842;2022-09-09T06:04:28;95179.22;;;18.66;62.03
30682;BME280;17439;48.092;11.842;2022-09-09T06:06:55;95185.13;;;18.68;61.99
30682;BME280;17439;48.092;11.842;2022-09-09T06:09:22;95187.13;;;18.71;62.11
30682;BME280;17439;48.092;11.842;2022-09-09T06:11:49;95185.59;;;18.74;61.99
30682;BME280;17439;48.092;11.842;2022-09-09T06:14:15;95186.81;;;18.76;62.41
30682;BME280;17439;48.092;11.842;2022-09-09T06:16:45;95186.84;;;18.80;62.36
30682;BME280;17439;48.092;11.842;2022-09-09T06:19:18;95178.34;;;18.85;62.47
30682;BME280;17439;48.092;11.842;2022-09-09T06:21:45;95184.66;;;18.89;62.10
30682;BME280;17439;48.092;11.842;2022-09-09T06:24:12;95184.28;;;18.91;62.17
30682;BME280;17439;48.092;11.842;2022-09-09T06:26:39;95182.41;;;18.95;61.85
30682;BME280;17439;48.092;11.842;2022-09-09T06:29:07;95182.81;;;18.97;61.70
30682;BME280;17439;48.092;11.842;2022-09-09T06:31:35;95181.28;;;18.99;61.65
30682;BME280;17439;48.092;11.842;2022-09-09T06:34:11;95182.84;;;19.00;61.44
30682;BME280;17439;48.092;11.842;2022-09-09T06:36:43;95182.13;;;19.03;61.70
30682;BME280;17439;48.092;11.842;2022-09-09T06:39:10;95189.19;;;19.05;61.41
30682;BME280;17439;48.092;11.842;2022-09-09T06:41:41;95188.81;;;19.06;61.33
30682;BME280;17439;48.092;11.842;2022-09-09T06:44:17;95190.41;;;19.07;61.66
30682;BME280;17439;48.092;11.842;2022-09-09T06:46:44;95194.72;;;19.08;61.74
30682;BME280;17439;48.092;11.842;2022-09-09T06:49:11;95201.44;;;19.11;61.64
30682;BME280;17439;48.092;11.842;2022-09-09T06:51:37;95197.91;;;19.10;61.97
30682;BME280;17439;48.092;11.842;2022-09-09T06:54:05;95197.53;;;19.12;61.91
30682;BME280;17439;48.092;11.842;2022-09-09T06:56:35;95200.34;;;19.15;61.99
30682;BME280;17439;48.092;11.842;2022-09-09T06:59:07;95201.16;;;19.19;61.93
30682;BME280;17439;48.092;11.842;2022-09-09T07:01:35;95194.00;;;19.11;61.65
30682;BME280;17439;48.092;11.842;2022-09-09T07:04:05;95188.69;;;19.26;62.08
30682;BME280;17439;48.092;11.842;2022-09-09T07:06:35;95188.78;;;19.33;61.88
30682;BME280;17439;48.092;11.842;2022-09-09T07:09:08;95186.84;;;19.37;61.50
30682;BME280;17439;48.092;11.842;2022-09-09T07:11:45;95199.09;;;19.43;61.30
30682;BME280;17439;48.092;11.842;2022-09-09T07:14:13;95193.66;;;19.47;61.74
30682;BME280;17439;48.092;11.842;2022-09-09T07:16:44;95192.13;;;19.49;61.53
30682;BME280;17439;48.092;11.842;2022-09-09T07:19:13;95198.44;;;19.53;61.62
30682;BME280;17439;48.092;11.842;2022-09-09T07:21:41;95195.75;;;19.57;61.68
30682;BME280;17439;48.092;11.842;2022-09-09T07:24:10;95195.78;;;19.61;61.73
30682;BME280;17439;48.092;11.842;2022-09-09T07:26:39;95200.16;;;19.65;61.63
30682;BME280;17439;48.092;11.842;2022-09-09T07:29:07;95194.69;;;19.69;61.76
30682;BME280;17439;48.092;11.842;2022-09-09T07:31:36;95190.44;;;19.75;61.16
30682;BME280;17439;48.092;11.842;2022-09-09T07:34:07;95188.56;;;19.79;61.33
30682;BME280;17439;48.092;11.842;2022-09-09T07:36:36;95192.13;;;19.83;60.73
30682;BME280;17439;48.092;11.842;2022-09-09T07:39:08;95194.13;;;19.86;60.61
30682;BME280;17439;48.092;11.842;2022-09-09T07:41:38;95198.88;;;19.89;60.64
30682;BME280;17439;48.092;11.842;2022-09-09T07:44:07;95198.13;;;19.92;60.67
30682;BME280;17439;48.092;11.842;2022-09-09T07:46:35;95205.22;;;19.93;60.53
30682;BME280;17439;48.092;11.842;2022-09-09T07:49:02;95218.59;;;19.95;60.62
30682;BME280;17439;48.092;11.842;2022-09-09T07:51:35;95229.22;;;19.97;60.37
30682;BME280;17439;48.092;11.842;2022-09-09T07:54:08;95255.97;;;20.00;59.99
30682;BME280;17439;48.092;11.842;2022-09-09T07:56:37;95277.53;;;19.98;59.30
30682;BME280;17439;48.092;11.842;2022-09-09T07:59:07;95284.53;;;19.91;59.23
30682;BME280;17439;48.092;11.842;2022-09-09T08:01:39;95275.00;;;19.82;59.40
30682;BME280;17439;48.092;11.842;2022-09-09T08:04:13;95290.59;;;19.74;59.66
30682;BME280;17439;48.092;11.842;2022-09-09T08:06:46;95285.75;;;19.64;59.90
30682;BME280;17439;48.092;11.842;2022-09-09T08:09:15;95290.75;;;19.54;59.66
30682;BME280;17439;48.092;11.842;2022-09-09T08:11:43;95303.97;;;19.45;59.74
30682;BME280;17439;48.092;11.842;2022-09-09T08:14:11;95299.91;;;19.35;60.13
30682;BME280;17439;48.092;11.842;2022-09-09T08:16:46;95297.44;;;19.27;61.05
30682;BME280;17439;48.092;11.842;2022-09-09T08:19:17;95300.06;;;19.19;61.18
30682;BME280;17439;48.092;11.842;2022-09-09T08:21:45;95296.50;;;19.15;61.42
30682;BME280;17439;48.092;11.842;2022-09-09T08:24:12;95299.97;;;19.12;61.51
30682;BME280;17439;48.092;11.842;2022-09-09T08:26:41;95300.72;;;19.09;62.00
30682;BME280;17439;48.092;11.842;2022-09-09T08:29:11;95294.03;;;19.10;62.25
30682;BME280;17439;48.092;11.842;2022-09-09T08:31:43;95295.63;;;19.11;62.52
30682;BME280;17439;48.092;11.842;2022-09-09T08:34:11;95299.63;;;19.14;62.72
30682;BME280;17439;48.092;11.842;2022-09-09T08:36:40;95296.91;;;19.17;62.52
30682;BME280;17439;48.092;11.842;2022-09-09T08:39:08;95298.56;;;19.22;62.81
30682;BME280;17439;48.092;11.842;2022-09-09T08:55:49;95304.88;;;19.53;62.11
30682;BME280;17439;48.092;11.842;2022-09-09T08:58:25;95315.91;;;19.56;62.19
30682;BME280;17439;48.092;11.842;2022-09-09T09:09:12;95304.53;;;19.58;61.74
30682;BME280;17439;48.092;11.842;2022-09-09T09:14:18;95306.50;;;19.57;61.78
30682;BME280;17439;48.092;11.842;2022-09-09T09:17:00;95313.97;;;19.57;61.60
30682;BME280;17439;48.092;11.842;2022-09-09T09:19:29;95309.25;;;19.57;61.98
30682;BME280;17439;48.092;11.842;2022-09-09T09:22:18;95310.41;;;19.56;61.38
30682;BME280;17439;48.092;11.842;2022-09-09T09:25:09;95305.72;;;19.57;62.16
30682;BME280;17439;48.092;11.842;2022-09-09T09:28:07;95311.66;;;19.63;62.06
30682;BME280;17439;48.092;11.842;2022-09-09T09:31:09;95302.66;;;19.66;62.46
30682;BME280;17439;48.092;11.842;2022-09-09T09:33:53;95300.78;;;19.70;62.70
30682;BME280;17439;48.092;11.842;2022-09-09T09:36:41;95313.78;;;19.73;62.31
30682;BME280;17439;48.092;11.842;2022-09-09T09:39:32;95315.34;;;19.74;62.36
30682;BME280;17439;48.092;11.842;2022-09-09T09:42:20;95322.44;;;19.75;62.42
30682;BME280;17439;48.092;11.842;2022-09-09T09:44:52;95323.69;;;19.78;62.30
30682;BME280;17439;48.092;11.842;2022-09-09T09:47:22;95324.84;;;19.77;62.35
30682;BME280;17439;48.092;11.842;2022-09-09T09:50:19;95328.72;;;19.75;61.76
30682;BME280;17439;48.092;11.842;2022-09-09T09:52:56;95328.69;;;19.72;62.06
30682;BME280;17439;48.092;11.842;2022-09-09T09:55:25;95326.72;;;19.72;62.37
30682;BME280;17439;48.092;11.842;2022-09-09T09:57:52;95323.56;;;19.70;62.41
30682;BME280;17439;48.092;11.842;2022-09-09T10:00:23;95324.34;;;19.71;62.53
30682;BME280;17439;48.092;11.842;2022-09-09T10:03:01;95320.06;;;19.73;62.52
30682;BME280;17439;48.092;11.842;2022-09-09T10:05:35;95319.75;;;19.79;63.09
30682;BME280;17439;48.092;11.842;2022-09-09T10:11:02;95329.81;;;19.98;63.20
30682;BME280;17439;48.092;11.842;2022-09-09T10:13:37;95316.97;;;20.09;63.54
30682;BME280;17439;48.092;11.842;2022-09-09T10:16:18;95313.97;;;20.21;63.04
30682;BME280;17439;48.092;11.842;2022-09-09T10:30:18;95318.59;;;20.89;61.33
30682;BME280;17439;48.092;11.842;2022-09-09T10:32:49;95315.50;;;20.97;61.42
30682;BME280;17439;48.092;11.842;2022-09-09T10:35:25;95308.09;;;21.05;60.92
30682;BME280;17439;48.092;11.842;2022-09-09T10:40:33;95307.00;;;21.17;60.29
30682;BME280;17439;48.092;11.842;2022-09-09T10:48:23;95317.72;;;21.29;59.92
30682;BME280;17439;48.092;11.842;2022-09-09T10:54:15;95322.44;;;21.29;59.41
30682;BME280;17439;48.092;11.842;2022-09-09T10:56:52;95322.84;;;21.31;59.18
30682;BME280;17439;48.092;11.842;2022-09-09T10:59:26;95315.78;;;21.33;59.16
30682;BME280;17439;48.092;11.842;2022-09-09T11:02:10;95314.56;;;21.31;59.06
30682;BME280;17439;48.092;11.842;2022-09-09T11:04:42;95313.41;;;21.32;59.52
30682;BME280;17439;48.092;11.842;2022-09-09T11:07:15;95315.78;;;21.33;59.87
30682;BME280;17439;48.092;11.842;2022-09-09T11:09:53;95323.69;;;21.35;60.08
30682;BME280;17439;48.092;11.842;2022-09-09T11:12:21;95324.09;;;21.41;60.41
30682;BME280;17439;48.092;11.842;2022-09-09T11:15:05;95329.25;;;21.46;60.08
30682;BME280;17439;48.092;11.842;2022-09-09T11:17:39;95319.47;;;21.52;59.53
30682;BME280;17439;48.092;11.842;2022-09-09T11:20:11;95316.75;;;21.55;59.21
30682;BME280;17439;48.092;11.842;2022-09-09T11:22:45;95315.94;;;21.59;58.97
30682;BME280;17439;48.092;11.842;2022-09-09T11:28:16;95310.03;;;21.60;58.31
30682;BME280;17439;48.092;11.842;2022-09-09T11:34:19;95314.84;;;21.67;58.35
30682;BME280;17439;48.092;11.842;2022-09-09T11:36:36;95308.16;;;21.71;58.57
30682;BME280;17439;48.092;11.842;2022-09-09T11:44:41;95310.63;;;21.95;58.64
30682;BME280;17439;48.092;11.842;2022-09-09T11:47:21;95313.81;;;22.00;55.38
30682;BME280;17439;48.092;11.842;2022-09-09T11:49:48;95314.22;;;22.09;58.00
30682;BME280;17439;48.092;11.842;2022-09-09T11:52:42;95309.13;;;22.19;56.46
30682;BME280;17439;48.092;11.842;2022-09-09T11:55:10;95316.25;;;22.27;56.85
30682;BME280;17439;48.092;11.842;2022-09-09T11:57:38;95314.75;;;22.37;57.38
30682;BME280;17439;48.092;11.842;2022-09-09T12:00:06;95311.97;;;22.44;57.60
30682;BME280;17439;48.092;11.842;2022-09-09T12:02:48;95303.72;;;22.55;55.48
30682;BME280;17439;48.092;11.842;2022-09-09T12:05:15;95314.41;;;22.67;57.03
30682;BME280;17439;48.092;11.842;2022-09-09T12:07:56;95306.09;;;22.78;54.50
30682;BME280;17439;48.092;11.842;2022-09-09T12:10:29;95303.34;;;22.89;53.83
30682;BME280;17439;48.092;11.842;2022-09-09T12:13:18;95304.53;;;22.98;54.01
30682;BME280;17439;48.092;11.842;2022-09-09T12:15:56;95306.94;;;23.11;53.94
30682;BME280;17439;48.092;11.842;2022-09-09T12:18:34;95308.13;;;23.21;52.23
30682;BME280;17439;48.092;11.842;2022-09-09T12:21:13;95300.22;;;23.26;51.43
30682;BME280;17439;48.092;11.842;2022-09-09T12:23:50;95300.59;;;23.32;52.16
30682;BME280;17439;48.092;11.842;2022-09-09T12:26:47;95296.25;;;23.38;52.83
30682;BME280;17439;48.092;11.842;2022-09-09T12:32:14;95297.41;;;23.51;51.30
30682;BME280;17439;48.092;11.842;2022-09-09T12:34:46;95297.00;;;23.57;51.70
30682;BME280;17439;48.092;11.842;2022-09-09T12:37:41;95300.16;;;23.59;52.03
30682;BME280;17439;48.092;11.842;2022-09-09T12:42:49;95296.19;;;23.70;52.43
30682;BME280;17439;48.092;11.842;2022-09-09T12:45:18;95297.34;;;23.73;52.08
30682;BME280;17439;48.092;11.842;2022-09-09T12:48:06;95297.34;;;23.73;49.75
30682;BME280;17439;48.092;11.842;2022-09-09T12:50:42;95292.22;;;23.71;49.94
30682;BME280;17439;48.092;11.842;2022-09-09T12:53:15;95290.63;;;23.67;50.25
30682;BME280;17439;48.092;11.842;2022-09-09T12:55:54;95285.09;;;23.67;51.17
30682;BME280;17439;48.092;11.842;2022-09-09T12:58:22;95280.78;;;23.66;51.18
30682;BME280;17439;48.092;11.842;2022-09-09T13:00:53;95280.38;;;23.64;50.04
30682;BME280;17439;48.092;11.842;2022-09-09T13:03:20;95279.19;;;23.65;51.60
30682;BME280;17439;48.092;11.842;2022-09-09T13:05:47;95276.81;;;23.67;51.47
30682;BME280;17439;48.092;11.842;2022-09-09T13:08:16;95268.50;;;23.70;51.65
30682;BME280;17439;48.092;11.842;2022-09-09T13:10:47;95258.59;;;23.77;51.05
30682;BME280;17439;48.092;11.842;2022-09-09T13:13:26;95268.09;;;23.86;51.32
30682;BME280;17439;48.092;11.842;2022-09-09T13:15:56;95261.31;;;23.95;50.55
30682;BME280;17439;48.092;11.842;2022-09-09T13:18:26;95256.94;;;24.01;51.05
30682;BME280;17439;48.092;11.842;2022-09-09T13:20:54;95253.75;;;24.06;51.26
30682;BME280;17439;48.092;11.842;2022-09-09T13:23:21;95256.47;;;24.13;51.59
30682;BME280;17439;48.092;11.842;2022-09-09T13:26:02;95248.94;;;24.17;49.25
30682;BME280;17439;48.092;11.842;2022-09-09T13:28:30;95242.56;;;24.24;50.93
30682;BME280;17439;48.092;11.842;2022-09-09T13:31:04;95243.34;;;24.28;50.08
30682;BME280;17439;48.092;11.842;2022-09-09T13:33:36;95246.09;;;24.32;49.31
30682;BME280;17439;48.092;11.842;2022-09-09T13:36:11;95237.78;;;24.32;49.63
30682;BME280;17439;48.092;11.842;2022-09-09T13:38:52;95242.50;;;24.35;49.79
30682;BME280;17439;48.092;11.842;2022-09-09T13:41:36;95243.31;;;24.32;49.71
30682;BME280;17439;48.092;11.842;2022-09-09T13:44:03;95240.59;;;24.21;48.51
30682;BME280;17439;48.092;11.842;2022-09-09T13:46:41;95233.91;;;24.15;48.27
30682;BME280;17439;48.092;11.842;2022-09-09T13:51:43;95231.63;;;23.99;48.62
30682;BME280;17439;48.092;11.842;2022-09-09T13:54:12;95231.28;;;23.93;49.72
30682;BME280;17439;48.092;11.842;2022-09-09T13:56:39;95226.97;;;23.85;49.73
30682;BME280;17439;48.092;11.842;2022-09-09T13:59:11;95228.94;;;23.77;49.63
30682;BME280;17439;48.092;11.842;2022-09-09T14:01:38;95216.72;;;23.71;49.78
30682;BME280;17439;48.092;11.842;2022-09-09T14:04:04;95216.72;;;23.64;49.92
30682;BME280;17439;48.092;11.842;2022-09-09T14:06:31;95226.25;;;23.55;49.89
30682;BME280;17439;48.092;11.842;2022-09-09T14:08:58;95218.78;;;23.49;49.80
30682;BME280;17439;48.092;11.842;2022-09-09T14:11:25;95221.56;;;23.42;50.03
30682;BME280;17439;48.092;11.842;2022-09-09T14:13:51;95217.22;;;23.33;50.34
30682;BME280;17439;48.092;11.842;2022-09-09T14:16:18;95218.03;;;23.27;50.65
30682;BME280;17439;48.092;11.842;2022-09-09T14:18:45;95228.31;;;23.19;50.75
30682;BME280;17439;48.092;11.842;2022-09-09T14:21:12;95221.25;;;23.11;50.90
30682;BME280;17439;48.092;11.842;2022-09-09T14:23:38;95211.34;;;23.06;51.55
30682;BME280;17439;48.092;11.842;2022-09-09T14:26:06;95213.34;;;23.02;51.65
30682;BME280;17439;48.092;11.842;2022-09-09T14:28:33;95213.72;;;22.97;51.69
30682;BME280;17439;48.092;11.842;2022-09-09T14:31:21;95216.88;;;22.92;52.08
30682;BME280;17439;48.092;11.842;2022-09-09T14:33:48;95222.44;;;22.88;52.31
30682;BME280;17439;48.092;11.842;2022-09-09T14:36:15;95215.72;;;22.86;52.21
30682;BME280;17439;48.092;11.842;2022-09-09T14:38:41;95223.22;;;22.81;52.59
30682;BME280;17439;48.092;11.842;2022-09-09T14:41:15;95219.66;;;22.77;51.90
30682;BME280;17439;48.092;11.842;2022-09-09T14:43:42;95222.03;;;22.75;52.22
30682;BME280;17439;48.092;11.842;2022-09-09T14:46:11;95224.03;;;22.75;52.30
30682;BME280;17439;48.092;11.842;2022-09-09T14:48:38;95229.94;;;22.73;52.83